• Join FlightAware (Why Join?)
  • Login
  • US Flag 
08:18PM EDT


 

Airport Tracker/Info


-or-


 

Live Flight TrackerFlight Track Log ✈ AAY816 ✈ 07-Jul-2014 ✈ KPIE - KHTS

Flight Track Log - Related Links

Times and Time Zones

All times are in EDT time to prevent confusion due to time zone crossing. See the AAY816 flight status page for this flight to view local times or setup timezone preferences in your user account.

Time Position Orientation Groundspeed Altitude Reporting Facility
EDT Latitude Longitude Course Direction KTS MPH feet Rate Location/Type
11:54AM 27.9000 -82.6833 192° South 161 185 900  Level Tampa TRACON
11:55AM 27.8333 -82.7000 192° South 212 244 3,300 2,100 Climbing Tampa TRACON
11:57AM 27.9342 -82.7386 341° North 282 325 7,600 2,340 Climbing Miami Center
11:58AM 28.0161 -82.7175 13° North 298 343 10,400 1,920 Climbing Miami Center
11:59AM 28.1331 -82.6808 15° North 317 365 11,900 1,920 Climbing Jacksonville Center
12:00PM 28.2417 -82.6733 North 360 414 14,600 2,460 Climbing Jacksonville Center
12:01PM 28.3542 -82.6661 North 386 444 16,900 2,040 Climbing Jacksonville Center
12:02PM 28.4711 -82.6611 North 404 465 18,700 1,800 Climbing Jacksonville Center
12:03PM 28.5922 -82.6586 North 417 480 20,600 1,680 Climbing Jacksonville Center
12:04PM 28.7172 -82.6464 North 429 494 22,100 1,440 Climbing Jacksonville Center
12:05PM 28.8425 -82.6436 North 440 506 23,500 1,380 Climbing Jacksonville Center
12:06PM 28.9761 -82.6339 North 454 522 24,900 1,200 Climbing Jacksonville Center
12:07PM 29.1075 -82.6289 North 462 532 26,000 900 Climbing Jacksonville Center
12:08PM 29.2369 -82.6189 North 462 532 26,800 1,200 Climbing Jacksonville Center
12:09PM 29.3664 -82.6114 North 462 532 28,400 1,500 Climbing Jacksonville Center
12:10PM 29.4978 -82.6039 North 462 532 29,800 1,200 Climbing Jacksonville Center
12:11PM 29.6169 -82.5986 North 462 532 30,900 960 Climbing Jacksonville Center
12:12PM 29.7464 -82.5911 North 462 532 31,800 960 Climbing Jacksonville Center
12:13PM 29.8778 -82.5836 North 462 532 32,900 600 Climbing Jacksonville Center
12:14PM 30.0053 -82.5808 North 457 526 33,000  Climbing Jacksonville Center
12:15PM 30.1347 -82.5756 North 457 526 33,000  Level Jacksonville Center
12:16PM 30.2639 -82.5703 North 462 532 33,000  Level Jacksonville Center
12:17PM 30.3933 -82.5603 North 462 532 33,000  Level Jacksonville Center
12:18PM 30.5250 -82.5550 North 462 532 33,000  Level Jacksonville Center
12:19PM 30.6522 -82.5472 North 462 532 33,000  Level Jacksonville Center
12:20PM 30.7817 -82.5467 360° North 462 532 33,000  Level Jacksonville Center
12:21PM 30.9133 -82.5367 North 462 532 33,000  Level Jacksonville Center
12:22PM 31.0447 -82.5336 North 462 532 33,000  Level Jacksonville Center
12:23PM 31.1742 -82.5283 North 457 526 33,000  Level Jacksonville Center
12:24PM 31.3058 -82.5231 North 462 532 33,000  Level Jacksonville Center
12:25PM 31.4519 -82.5128 North 467 537 33,000  Level Jacksonville Center
12:26PM 31.5814 -82.5000 North 467 537 33,000  Level Jacksonville Center
12:27PM 31.7086 -82.4775 North 467 537 33,000  Level Jacksonville Center
12:28PM 31.7931 -82.4750 North 465 535 33,000  Level Atlanta Center
12:29PM 31.9200 -82.4483 10° North 471 542 33,000  Level Atlanta Center
12:30PM 32.0556 -82.4314 North 476 548 33,000  Level Atlanta Center
12:31PM 32.1844 -82.4044 10° North 476 548 33,000  Level Atlanta Center
12:32PM 32.3136 -82.3922 North 476 548 33,000  Level Atlanta Center
12:33PM 32.4408 -82.3653 10° North 471 542 33,000  Level Atlanta Center
12:34PM 32.5700 -82.3506 North 466 536 33,000  Level Atlanta Center
12:35PM 32.7011 -82.3233 10° North 461 531 33,000  Level Atlanta Center
12:36PM 32.8303 -82.3058 North 461 531 33,000  Level Atlanta Center
12:37PM 32.9572 -82.2811 North 461 531 33,000  Level Atlanta Center
12:38PM 33.0697 -82.2664 North 461 531 33,000  Level Atlanta Center
12:39PM 33.1944 -82.2417 North 461 531 33,000  Level Atlanta Center
12:40PM 33.3194 -82.2267 North 461 531 33,000  Level Atlanta Center
12:41PM 33.4444 -82.2039 North 455 524 33,000  Level Atlanta Center
12:42PM 33.5675 -82.1864 North 455 524 33,000  Level Atlanta Center
12:43PM 33.6900 -82.1614 10° North 450 518 33,000  Level Atlanta Center
12:44PM 33.8150 -82.1436 North 445 512 33,000  Level Atlanta Center
12:45PM 33.9378 -82.1183 10° North 445 512 33,000  Level Atlanta Center
12:46PM 34.0753 -82.1003 North 445 512 33,000  Level Atlanta Center
12:47PM 34.1981 -82.0747 10° North 445 512 33,000  Level Atlanta Center
12:48PM 34.3189 -82.0594 North 445 512 33,000  Level Atlanta Center
12:49PM 34.4414 -82.0314 11° North 445 512 33,000  Level Atlanta Center
12:50PM 34.5622 -82.0133 North 445 512 33,000 -60 Level Atlanta Center
12:51PM 34.6869 -81.9875 10° North 445 512 32,900 -540 Descending Atlanta Center
12:52PM 34.8142 -81.9717 North 445 512 32,000 -900 Descending Atlanta Center
12:53PM 34.9242 -81.9464 11° North 445 512 31,200 -540 Descending Atlanta Center
12:54PM 35.0514 -81.9356 North 445 512 31,000 -120 Descending Atlanta Center
12:55PM 35.1744 -81.9272 North 445 512 31,000  Level Atlanta Center
12:56PM 35.3139 -81.9136 North 445 512 31,000  Level Atlanta Center
12:57PM 35.4308 -81.9181 358° North 445 512 31,000  Level Atlanta Center
12:58PM 35.5578 -81.9072 North 452 520 31,000  Level Atlanta Center
12:59PM 35.6872 -81.9039 North 458 527 31,000 -300 Level Atlanta Center
01:00PM 35.8142 -81.8928 North 458 527 30,500 -780 Descending Atlanta Center
01:01PM 35.9436 -81.8894 North 458 527 29,500 -960 Descending Atlanta Center
01:02PM 36.0728 -81.8858 North 458 527 28,600 -960 Descending Atlanta Center
01:03PM 36.1944 -81.9239 346° North 458 527 27,600 -840 Descending Atlanta Center
01:04PM 36.3283 -81.9514 351° North 453 521 27,000 -660 Descending Atlanta Center
01:05PM 36.4458 -81.9894 345° North 444 511 26,300 -900 Descending Atlanta Center
01:06PM 36.5631 -82.0200 348° North 432 497 25,300 -1,020 Descending Atlanta Center
01:07PM 36.6783 -82.0561 346° North 427 491 24,300 -900 Descending Atlanta Center
01:07PM 36.7342 -82.0753 345° North 431 496 24,000 -240 Descending Indianapolis Center
01:08PM 36.8467 -82.1000 350° North 416 479 24,000  Level Indianapolis Center
01:09PM 36.9578 -82.1406 344° North 416 479 24,000  Level Indianapolis Center
01:10PM 37.0903 -82.1736 349° North 417 480 24,000 -300 Level Indianapolis Center
01:11PM 37.2000 -82.2122 344° North 412 474 23,400 -1,320 Descending Indianapolis Center
01:12PM 37.3114 -82.2419 348° North 412 474 21,300 -2,100 Descending Indianapolis Center
01:13PM 37.4206 -82.2775 345° North 409 471 19,100 -2,100 Descending Indianapolis Center
01:14PM 37.5258 -82.3056 348° North 393 452 17,000 -2,100 Descending Indianapolis Center
01:15PM 37.6233 -82.3414 344° North 373 429 14,800 -2,340 Descending Indianapolis Center
01:16PM 37.7372 -82.3675 350° North 360 414 12,300 -1,740 Descending Indianapolis Center
01:17PM 37.8272 -82.4000 344° North 342 394 11,300 -1,260 Descending Indianapolis Center
01:18PM 37.9122 -82.4103 355° North 319 367 9,800 -1,500 Descending Indianapolis Center
01:19PM 37.9939 -82.4242 352° North 301 346 8,200 -1,560 Descending Indianapolis Center
01:21PM 38.0742 -82.4406 351° North 296 341 6,700 -1,740 Descending Indianapolis Center
01:22PM 38.1617 -82.4517 354° North 293 337 4,700 -1,680 Descending Indianapolis Center
01:23PM 38.2369 -82.4633 353° North 279 321 3,300 -1,200 Descending Indianapolis Center
01:24PM 38.3036 -82.4764 351° North 251 289 2,300 -840 Descending Indianapolis Center
01:25PM 38.3508 -82.5017 337° Northwest 196 226 1,600 -540 Descending Indianapolis Center
01:26PM 38.3614 -82.5528 285° West 178 205 1,200 -420 Descending Indianapolis Center
01:28PM 38.3667 -82.5500 345° North  Level FlightAware Approximate